Time;durP1;ratioP1;P1;durP2;ratioP2;P2;SDS_P1;SDS_P2;PMS_P1;PMS_P2;Temp;Humidity;BMP_temperature;BMP_pressure;BME280_temperature;BME280_humidity;BME280_pressure;Samples;Min_cycle;Max_cycle;Signal;HPM_P1;HPM_P2
2022/06/14 00:01:14;;;;;;;;;;;12.50;99.90;;;;;;5065544;28;19931;-55
2022/06/14 00:03:42;;;;;;;;;;;12.50;99.90;;;;;;5076573;28;20252;-54
2022/06/14 00:06:11;;;;;;;;;;;12.50;99.90;;;;;;5076668;28;20451;-55
2022/06/14 00:08:37;;;;;;;;;;;12.40;99.90;;;;;;5057929;28;19928;-55
2022/06/14 00:11:15;;;;;;;;;;;12.40;99.90;;;;;;5075948;28;19927;-54
2022/06/14 00:13:42;;;;;;;;;;;12.40;99.90;;;;;;5076025;28;20877;-55
2022/06/14 00:16:09;;;;;;;;;;;12.30;99.90;;;;;;5058462;28;19927;-54
2022/06/14 00:18:36;;;;;;;;;;;12.30;99.90;;;;;;5057435;28;19970;-55
2022/06/14 00:21:03;;;;;;;;;;;12.30;99.90;;;;;;5075403;28;19939;-54
2022/06/14 00:23:30;;;;;;;;;;;12.30;99.90;;;;;;5076632;28;19927;-55
2022/06/14 00:25:57;;;;;;;;;;;12.30;99.90;;;;;;5076709;28;20010;-56
2022/06/14 00:28:25;;;;;;;;;;;12.20;99.90;;;;;;5084270;28;20389;-54
2022/06/14 00:30:54;;;;;;;;;;;12.20;99.90;;;;;;5057615;28;19924;-56
2022/06/14 00:33:21;;;;;;;;;;;12.20;99.90;;;;;;5075705;28;20633;-51
2022/06/14 00:35:48;;;;;;;;;;;12.20;99.90;;;;;;5076444;28;20462;-56
2022/06/14 00:38:15;;;;;;;;;;;12.10;99.90;;;;;;5074882;28;20046;-54
2022/06/14 00:40:49;;;;;;;;;;;12.10;99.90;;;;;;5076819;28;19981;-54
2022/06/14 00:43:17;;;;;;;;;;;12.10;99.90;;;;;;5095543;28;19978;-54
2022/06/14 00:45:44;;;;;;;;;;;12.10;99.90;;;;;;5096408;28;19924;-55
2022/06/14 00:48:28;;;;;;;;;;;12.10;99.90;;;;;;5089673;28;19986;-55
2022/06/14 00:51:16;;;;;;;;;;;12.00;99.90;;;;;;5057225;28;19932;-54
2022/06/14 00:53:47;;;;;;;;;;;12.00;99.90;;;;;;5055887;28;19931;-55
2022/06/14 00:56:31;;;;;;;;;;;12.00;99.90;;;;;;5055639;28;20095;-53
2022/06/14 00:59:04;;;;;;;;;;;12.00;99.90;;;;;;5055569;28;19931;-54
2022/06/14 01:01:34;;;;;;;;;;;11.90;99.90;;;;;;5066906;28;19942;-54
2022/06/14 01:04:24;;;;;;;;;;;11.90;99.90;;;;;;5076351;28;19928;-55
2022/06/14 01:06:50;;;;;;;;;;;11.90;99.90;;;;;;5064951;28;20664;-54
2022/06/14 01:09:40;;;;;;;;;;;11.80;99.90;;;;;;5075386;28;20377;-55
2022/06/14 01:12:08;;;;;;;;;;;11.80;99.90;;;;;;5057458;28;19927;-51
2022/06/14 01:14:55;;;;;;;;;;;11.80;99.90;;;;;;5075503;28;21010;-54
2022/06/14 01:17:22;;;;;;;;;;;11.70;99.90;;;;;;5084451;28;19934;-54
2022/06/14 01:19:49;;;;;;;;;;;11.70;99.90;;;;;;5095524;28;19963;-53
2022/06/14 01:22:16;;;;;;;;;;;11.70;99.90;;;;;;5095184;28;19934;-51
2022/06/14 01:24:43;;;;;;;;;;;11.60;99.90;;;;;;5096074;28;19924;-54
2022/06/14 01:27:13;;;;;;;;;;;11.60;99.90;;;;;;5085033;28;19932;-55
2022/06/14 01:29:41;;;;;;;;;;;11.60;99.90;;;;;;5054506;28;19931;-55
2022/06/14 01:32:09;;;;;;;;;;;11.60;99.90;;;;;;5054768;28;19931;-54
2022/06/14 01:34:39;;;;;;;;;;;11.60;99.90;;;;;;5055066;28;19978;-52
2022/06/14 01:37:06;;;;;;;;;;;11.50;99.90;;;;;;5055459;28;19959;-52
2022/06/14 01:39:32;;;;;;;;;;;11.50;99.90;;;;;;5036255;28;19958;-52
2022/06/14 01:42:04;;;;;;;;;;;11.50;99.90;;;;;;5067376;28;19920;-50
2022/06/14 01:44:37;;;;;;;;;;;11.50;99.90;;;;;;5074709;28;20014;-53
2022/06/14 01:47:04;;;;;;;;;;;11.50;99.90;;;;;;5075787;28;20117;-54
2022/06/14 01:52:20;;;;;;;;;;;11.50;99.90;;;;;;5063479;28;19928;-51
2022/06/14 01:55:08;;;;;;;;;;;11.40;99.90;;;;;;5057722;28;19931;-52
2022/06/14 01:57:37;;;;;;;;;;;11.40;99.90;;;;;;5057245;28;19920;-55
2022/06/14 02:00:07;;;;;;;;;;;11.40;99.90;;;;;;5056719;28;20466;-52
2022/06/14 02:02:39;;;;;;;;;;;11.30;99.90;;;;;;5058691;28;20024;-54
2022/06/14 02:05:12;;;;;;;;;;;11.30;99.90;;;;;;5057306;28;19947;-54
2022/06/14 02:07:44;;;;;;;;;;;11.30;99.90;;;;;;5074782;28;19927;-55
2022/06/14 02:10:14;;;;;;;;;;;11.30;99.90;;;;;;5074991;28;19927;-53
2022/06/14 02:13:00;;;;;;;;;;;11.20;99.90;;;;;;5074509;28;20456;-55
2022/06/14 02:15:45;;;;;;;;;;;11.20;99.90;;;;;;5057603;28;20511;-53
2022/06/14 02:18:20;;;;;;;;;;;11.10;99.90;;;;;;5072261;28;20479;-54
2022/06/14 02:21:08;;;;;;;;;;;11.10;99.90;;;;;;5077154;28;19968;-56
2022/06/14 02:23:38;;;;;;;;;;;11.10;99.90;;;;;;5094828;28;20485;-56
2022/06/14 02:26:07;;;;;;;;;;;11.00;99.90;;;;;;5076325;28;19931;-55
2022/06/14 02:28:38;;;;;;;;;;;11.10;99.90;;;;;;5061873;28;20103;-56
2022/06/14 02:31:06;;;;;;;;;;;11.00;99.90;;;;;;5054468;28;19928;-55
2022/06/14 02:33:35;;;;;;;;;;;11.10;99.90;;;;;;5055105;28;20392;-56
2022/06/14 02:36:05;;;;;;;;;;;11.00;99.90;;;;;;5036412;28;19931;-55
2022/06/14 02:38:52;;;;;;;;;;;11.00;99.90;;;;;;5054581;28;19924;-56
2022/06/14 02:41:26;;;;;;;;;;;11.00;99.90;;;;;;5025012;28;19924;-56
2022/06/14 02:43:55;;;;;;;;;;;10.90;99.90;;;;;;5075708;28;20351;-55
2022/06/14 02:46:25;;;;;;;;;;;10.90;99.90;;;;;;5060346;28;19923;-55
2022/06/14 02:48:55;;;;;;;;;;;10.90;99.90;;;;;;5078590;28;19932;-55
2022/06/14 02:51:25;;;;;;;;;;;10.90;99.90;;;;;;5065913;28;19925;-55
2022/06/14 02:54:00;;;;;;;;;;;10.90;99.90;;;;;;5057466;28;19924;-55
2022/06/14 02:56:31;;;;;;;;;;;10.80;99.90;;;;;;5058174;28;19928;-56
2022/06/14 02:59:01;;;;;;;;;;;10.80;99.90;;;;;;5057989;28;20436;-56
2022/06/14 03:01:36;;;;;;;;;;;10.80;99.90;;;;;;5071305;28;19923;-55
2022/06/14 03:04:02;;;;;;;;;;;10.80;99.90;;;;;;5077315;28;19963;-56
2022/06/14 03:06:36;;;;;;;;;;;10.70;99.90;;;;;;5060067;28;19924;-55
2022/06/14 03:09:14;;;;;;;;;;;10.70;99.90;;;;;;5077083;28;20397;-57
2022/06/14 03:11:50;;;;;;;;;;;10.70;99.90;;;;;;5077735;28;19964;-57
2022/06/14 03:14:23;;;;;;;;;;;10.70;99.90;;;;;;5077499;28;19931;-56
2022/06/14 03:16:56;;;;;;;;;;;10.60;99.90;;;;;;5065672;28;19949;-56
2022/06/14 03:19:28;;;;;;;;;;;10.60;99.90;;;;;;5096156;28;19968;-57
2022/06/14 03:22:00;;;;;;;;;;;10.60;99.90;;;;;;5098417;28;20823;-55
2022/06/14 03:24:26;;;;;;;;;;;10.60;99.90;;;;;;5079518;28;20004;-56
2022/06/14 03:27:05;;;;;;;;;;;10.60;99.90;;;;;;5090528;28;19924;-57
2022/06/14 03:29:40;;;;;;;;;;;10.60;99.90;;;;;;5076838;28;19923;-57
2022/06/14 03:32:16;;;;;;;;;;;10.60;99.90;;;;;;5077729;28;20333;-57
2022/06/14 03:34:45;;;;;;;;;;;10.60;99.90;;;;;;5059171;28;19924;-55
2022/06/14 03:37:13;;;;;;;;;;;10.60;99.90;;;;;;5059154;28;19924;-57
2022/06/14 03:39:42;;;;;;;;;;;10.60;99.90;;;;;;5076721;28;19924;-55
2022/06/14 03:42:11;;;;;;;;;;;10.70;99.90;;;;;;5089695;28;19927;-55
2022/06/14 03:44:38;;;;;;;;;;;10.60;99.90;;;;;;5097109;28;19924;-54
2022/06/14 03:47:10;;;;;;;;;;;10.60;99.90;;;;;;5097206;28;20014;-56
2022/06/14 03:49:42;;;;;;;;;;;10.60;99.90;;;;;;5078932;28;19932;-55
2022/06/14 03:52:24;;;;;;;;;;;10.60;99.90;;;;;;5073716;28;20467;-56
2022/06/14 03:55:08;;;;;;;;;;;10.60;99.90;;;;;;5057116;28;20769;-54
2022/06/14 03:57:38;;;;;;;;;;;10.60;99.90;;;;;;5056602;28;19920;-54
2022/06/14 04:00:30;;;;;;;;;;;10.60;99.90;;;;;;5055424;28;19928;-55
2022/06/14 04:03:15;;;;;;;;;;;10.60;99.90;;;;;;5071927;28;19924;-57
2022/06/14 04:05:42;;;;;;;;;;;10.60;99.90;;;;;;5075942;28;19924;-57
2022/06/14 04:08:12;;;;;;;;;;;10.60;99.90;;;;;;5077058;28;20439;-55
2022/06/14 04:10:42;;;;;;;;;;;10.60;99.90;;;;;;5075373;28;19977;-56
2022/06/14 04:13:11;;;;;;;;;;;10.70;99.90;;;;;;5076925;28;19924;-56
2022/06/14 04:15:47;;;;;;;;;;;10.70;99.90;;;;;;5075077;28;19928;-55
2022/06/14 04:21:02;;;;;;;;;;;10.80;99.90;;;;;;5096765;28;20043;-55
2022/06/14 04:23:34;;;;;;;;;;;10.80;99.90;;;;;;5079744;28;20388;-55
2022/06/14 04:26:07;;;;;;;;;;;10.80;99.90;;;;;;5096743;28;19992;-55
2022/06/14 04:28:44;;;;;;;;;;;10.90;99.90;;;;;;5058088;28;20913;-56
2022/06/14 04:31:14;;;;;;;;;;;10.90;99.90;;;;;;5075849;28;19920;-55
2022/06/14 04:33:45;;;;;;;;;;;11.00;99.90;;;;;;5076091;28;20846;-55
2022/06/14 04:36:14;;;;;;;;;;;11.00;99.90;;;;;;5076433;28;19923;-55
2022/06/14 04:39:04;;;;;;;;;;;11.10;99.90;;;;;;5076596;28;20527;-56
2022/06/14 04:41:34;;;;;;;;;;;11.20;99.90;;;;;;5056037;28;19927;-55
2022/06/14 04:44:10;;;;;;;;;;;11.20;99.90;;;;;;5078613;28;20672;-55
2022/06/14 04:46:42;;;;;;;;;;;11.30;99.90;;;;;;5096557;28;19924;-55
2022/06/14 04:49:18;;;;;;;;;;;11.40;99.90;;;;;;5077415;28;20505;-55
2022/06/14 04:51:50;;;;;;;;;;;11.40;99.90;;;;;;5096802;28;19923;-54
2022/06/14 04:54:21;;;;;;;;;;;11.40;99.90;;;;;;5053991;28;19934;-54
2022/06/14 04:57:00;;;;;;;;;;;11.50;99.90;;;;;;5055880;28;19935;-55
2022/06/14 04:59:31;;;;;;;;;;;11.50;99.90;;;;;;5054978;28;19924;-56
2022/06/14 05:02:06;;;;;;;;;;;11.60;99.90;;;;;;5070712;28;20324;-56
2022/06/14 05:04:36;;;;;;;;;;;11.60;99.90;;;;;;5057426;28;20287;-56
2022/06/14 05:07:05;;;;;;;;;;;11.70;99.90;;;;;;5074942;28;20561;-55
2022/06/14 05:09:37;;;;;;;;;;;11.80;99.90;;;;;;5057167;28;19930;-56
2022/06/14 05:12:14;;;;;;;;;;;11.80;99.90;;;;;;5057914;28;19941;-54
2022/06/14 05:14:50;;;;;;;;;;;11.80;99.90;;;;;;5075650;28;20030;-56
2022/06/14 05:17:27;;;;;;;;;;;11.90;99.90;;;;;;5085047;28;19930;-55
2022/06/14 05:20:00;;;;;;;;;;;12.00;99.90;;;;;;5076133;28;19977;-55
2022/06/14 05:22:36;;;;;;;;;;;12.10;99.90;;;;;;5095701;28;19923;-57
2022/06/14 05:25:05;;;;;;;;;;;12.10;99.90;;;;;;5078188;28;19930;-56
2022/06/14 05:27:40;;;;;;;;;;;12.30;99.90;;;;;;5080822;28;19924;-52
2022/06/14 05:30:10;;;;;;;;;;;12.30;99.90;;;;;;5039983;28;19993;-52
2022/06/14 05:32:56;;;;;;;;;;;12.40;99.90;;;;;;5056576;28;19931;-53
2022/06/14 05:35:23;;;;;;;;;;;12.50;99.90;;;;;;5057643;28;20094;-51
2022/06/14 05:37:49;;;;;;;;;;;12.60;99.90;;;;;;5074777;28;19967;-49
2022/06/14 05:40:28;;;;;;;;;;;12.60;99.90;;;;;;5056938;28;19920;-48
2022/06/14 05:42:57;;;;;;;;;;;12.70;99.90;;;;;;5094179;28;20248;-52
2022/06/14 05:45:25;;;;;;;;;;;12.80;99.90;;;;;;5095458;28;19924;-51
2022/06/14 05:47:57;;;;;;;;;;;12.90;99.90;;;;;;5095583;28;19932;-51
2022/06/14 05:50:26;;;;;;;;;;;13.00;99.90;;;;;;5095221;28;19923;-53
2022/06/14 05:52:56;;;;;;;;;;;13.10;99.90;;;;;;5076215;28;20717;-50
2022/06/14 05:55:46;;;;;;;;;;;13.20;99.90;;;;;;5052638;28;19924;-50
2022/06/14 05:58:29;;;;;;;;;;;13.30;99.90;;;;;;5055283;28;19924;-50
2022/06/14 06:01:14;;;;;;;;;;;13.40;99.90;;;;;;5056127;28;19942;-53
2022/06/14 06:03:51;;;;;;;;;;;13.40;99.90;;;;;;5055371;28;20434;-52
2022/06/14 06:06:19;;;;;;;;;;;13.60;99.90;;;;;;5054414;28;20250;-50
2022/06/14 06:08:51;;;;;;;;;;;13.70;99.90;;;;;;5054760;28;19925;-53
2022/06/14 06:11:25;;;;;;;;;;;13.80;99.90;;;;;;5054348;28;20902;-53
2022/06/14 06:13:54;;;;;;;;;;;13.90;99.90;;;;;;5054754;28;19928;-51
2022/06/14 06:16:35;;;;;;;;;;;14.00;99.90;;;;;;5055950;28;20460;-53
2022/06/14 06:19:06;;;;;;;;;;;14.20;99.90;;;;;;5098029;28;19977;-53
2022/06/14 06:21:39;;;;;;;;;;;14.30;99.90;;;;;;5086593;28;19927;-50
2022/06/14 06:24:24;;;;;;;;;;;14.50;99.90;;;;;;5078942;28;19981;-52
2022/06/14 06:26:53;;;;;;;;;;;14.60;99.90;;;;;;5085862;28;20038;-52
2022/06/14 06:29:23;;;;;;;;;;;14.70;99.90;;;;;;5079517;28;19930;-49
2022/06/14 06:31:50;;;;;;;;;;;14.80;99.90;;;;;;5077873;28;19931;-52
2022/06/14 06:34:18;;;;;;;;;;;14.90;99.90;;;;;;5060604;28;19928;-49
2022/06/14 06:37:01;;;;;;;;;;;15.00;99.90;;;;;;5079062;28;19928;-51
2022/06/14 06:39:35;;;;;;;;;;;15.10;99.90;;;;;;5059802;28;20523;-53
2022/06/14 06:42:14;;;;;;;;;;;15.20;99.90;;;;;;5090990;28;20677;-52
2022/06/14 06:44:59;;;;;;;;;;;15.30;99.90;;;;;;5080864;28;19923;-52
2022/06/14 06:47:28;;;;;;;;;;;15.40;99.90;;;;;;5099358;28;19923;-50
2022/06/14 06:50:06;;;;;;;;;;;15.50;99.90;;;;;;5080040;28;20972;-50
2022/06/14 06:52:46;;;;;;;;;;;15.70;99.90;;;;;;5098976;28;19942;-53
2022/06/14 06:55:21;;;;;;;;;;;15.80;99.90;;;;;;5073369;28;19924;-53
2022/06/14 06:57:49;;;;;;;;;;;15.90;99.90;;;;;;5057969;28;19924;-51
2022/06/14 07:00:17;;;;;;;;;;;16.10;99.90;;;;;;5057292;28;19932;-52
2022/06/14 07:02:47;;;;;;;;;;;16.20;99.90;;;;;;5096810;28;20324;-50
2022/06/14 07:05:16;;;;;;;;;;;16.30;99.90;;;;;;5098835;28;20010;-50
2022/06/14 07:07:47;;;;;;;;;;;16.40;99.90;;;;;;5079859;28;19924;-50
2022/06/14 07:10:27;;;;;;;;;;;16.50;99.90;;;;;;5079056;28;19971;-51
2022/06/14 07:12:56;;;;;;;;;;;16.60;99.90;;;;;;5097856;28;19924;-50
2022/06/14 07:15:35;;;;;;;;;;;16.70;99.90;;;;;;5080385;28;19934;-49
2022/06/14 07:18:11;;;;;;;;;;;16.90;99.90;;;;;;5082053;28;19923;-51
2022/06/14 07:20:38;;;;;;;;;;;17.00;99.90;;;;;;5077237;28;19924;-54
2022/06/14 07:23:23;;;;;;;;;;;17.10;99.90;;;;;;5075503;28;19996;-53
2022/06/14 07:25:59;;;;;;;;;;;17.20;99.90;;;;;;5076761;28;19924;-51
2022/06/14 07:28:43;;;;;;;;;;;17.30;99.90;;;;;;5067791;28;19924;-51
2022/06/14 07:31:16;;;;;;;;;;;17.40;99.90;;;;;;5058252;28;20330;-54
2022/06/14 07:33:43;;;;;;;;;;;17.50;99.90;;;;;;5042813;28;20015;-54
2022/06/14 07:36:15;;;;;;;;;;;17.60;99.90;;;;;;5077919;28;19923;-61
2022/06/14 07:38:48;;;;;;;;;;;17.70;99.90;;;;;;5077407;28;20018;-54
2022/06/14 07:41:15;;;;;;;;;;;17.80;99.90;;;;;;5082582;28;19924;-52
2022/06/14 07:43:47;;;;;;;;;;;17.90;99.90;;;;;;5097832;28;19957;-53
2022/06/14 07:46:16;;;;;;;;;;;17.90;99.90;;;;;;5097607;28;19923;-52
2022/06/14 07:48:49;;;;;;;;;;;18.10;99.90;;;;;;5091389;28;20001;-52
2022/06/14 07:51:26;;;;;;;;;;;18.20;99.90;;;;;;5076957;28;19959;-51
2022/06/14 07:53:55;;;;;;;;;;;18.30;99.90;;;;;;5059590;28;20010;-51
2022/06/14 07:56:34;;;;;;;;;;;18.50;99.90;;;;;;5054205;28;20716;-52
2022/06/14 07:59:11;;;;;;;;;;;18.60;99.90;;;;;;5074624;28;19954;-53
2022/06/14 08:01:48;;;;;;;;;;;18.70;99.90;;;;;;5059813;28;19920;-52
2022/06/14 08:04:21;;;;;;;;;;;18.80;99.90;;;;;;5059403;28;20048;-53
2022/06/14 08:06:54;;;;;;;;;;;18.90;99.90;;;;;;5077184;28;20486;-51
2022/06/14 08:09:23;;;;;;;;;;;19.00;99.90;;;;;;5076907;28;19924;-51
2022/06/14 08:11:57;;;;;;;;;;;19.20;99.90;;;;;;5077446;28;19931;-53
2022/06/14 08:14:33;;;;;;;;;;;19.30;99.90;;;;;;5076517;28;20014;-50
2022/06/14 08:17:01;;;;;;;;;;;19.40;99.90;;;;;;5084022;28;19923;-51
2022/06/14 08:19:34;;;;;;;;;;;19.60;99.90;;;;;;5096276;28;19923;-51
2022/06/14 08:22:03;;;;;;;;;;;19.70;99.90;;;;;;5077958;28;19919;-65
2022/06/14 08:24:33;;;;;;;;;;;20.00;99.90;;;;;;5078202;28;19929;-66
2022/06/14 08:27:21;;;;;;;;;;;20.20;99.90;;;;;;5087645;28;19924;-64
2022/06/14 08:30:00;;;;;;;;;;;20.50;99.90;;;;;;5054730;28;20524;-65
2022/06/14 08:32:26;;;;;;;;;;;20.80;99.90;;;;;;5056541;28;19924;-62
2022/06/14 08:34:59;;;;;;;;;;;21.10;99.90;;;;;;5056245;28;19930;-65
2022/06/14 08:37:35;;;;;;;;;;;21.40;99.90;;;;;;5056238;28;19938;-63
2022/06/14 08:40:11;;;;;;;;;;;21.60;99.90;;;;;;5055209;28;19931;-64
2022/06/14 08:42:58;;;;;;;;;;;21.90;99.90;;;;;;5088997;28;19930;-64
2022/06/14 08:45:25;;;;;;;;;;;22.10;99.90;;;;;;5096827;28;19930;-64
2022/06/14 08:47:55;;;;;;;;;;;22.40;99.90;;;;;;5096312;28;19923;-65
2022/06/14 08:50:34;;;;;;;;;;;22.60;99.90;;;;;;5077317;28;19923;-64
2022/06/14 08:53:14;;;;;;;;;;;22.80;99.90;;;;;;5077992;28;20041;-64
2022/06/14 08:55:59;;;;;;;;;;;23.00;99.90;;;;;;5078504;28;19921;-63
2022/06/14 08:58:26;;;;;;;;;;;23.10;99.90;;;;;;5072190;28;19981;-63
2022/06/14 09:01:09;;;;;;;;;;;23.20;99.90;;;;;;5072177;28;20400;-63
2022/06/14 09:03:44;;;;;;;;;;;23.30;99.90;;;;;;5059299;28;19920;-63
2022/06/14 09:06:15;;;;;;;;;;;23.30;99.90;;;;;;5058384;28;19924;-61
2022/06/14 09:08:54;;;;;;;;;;;23.20;99.90;;;;;;5057144;28;20023;-64
2022/06/14 09:11:39;;;;;;;;;;;23.30;99.90;;;;;;5057382;28;19955;-63
2022/06/14 09:14:21;;;;;;;;;;;23.30;99.90;;;;;;5075357;28;19927;-63
2022/06/14 09:16:51;;;;;;;;;;;23.40;99.90;;;;;;5081256;28;20940;-65
2022/06/14 09:19:37;;;;;;;;;;;23.60;99.90;;;;;;5095873;28;19919;-62
2022/06/14 09:22:06;;;;;;;;;;;23.80;99.90;;;;;;5086371;28;19924;-63
2022/06/14 09:24:49;;;;;;;;;;;23.90;99.90;;;;;;5076354;28;19923;-62
2022/06/14 09:27:16;;;;;;;;;;;24.00;99.90;;;;;;5076480;28;20377;-65
2022/06/14 09:30:16;;;;;;;;;;;24.00;99.90;;;;;;5075863;28;19935;-65
2022/06/14 09:35:50;;;;;;;;;;;24.20;99.80;;;;;;5076211;28;19928;-65
2022/06/14 09:38:35;;;;;;;;;;;24.40;99.90;;;;;;5057233;28;19931;-66
2022/06/14 09:41:17;;;;;;;;;;;24.30;98.30;;;;;;5061534;28;20452;-64
2022/06/14 09:43:54;;;;;;;;;;;24.40;99.30;;;;;;5077150;28;19923;-62
2022/06/14 09:46:23;;;;;;;;;;;24.40;98.10;;;;;;5096603;28;20026;-65
2022/06/14 09:48:53;;;;;;;;;;;24.40;95.40;;;;;;5095929;28;20015;-63
2022/06/14 09:51:20;;;;;;;;;;;24.50;96.80;;;;;;5077701;28;19965;-69
2022/06/14 09:54:00;;;;;;;;;;;24.50;92.60;;;;;;5096966;28;19924;-61
2022/06/14 09:56:38;;;;;;;;;;;24.60;95.10;;;;;;5100487;28;20660;-62
2022/06/14 09:59:14;;;;;;;;;;;24.60;93.30;;;;;;5059451;28;19924;-61
2022/06/14 10:02:00;;;;;;;;;;;24.70;95.10;;;;;;5063767;28;20030;-64
2022/06/14 10:04:44;;;;;;;;;;;24.90;93.70;;;;;;5060930;28;19924;-67
2022/06/14 10:07:14;;;;;;;;;;;24.90;92.40;;;;;;5080089;28;20010;-67
2022/06/14 10:09:50;;;;;;;;;;;25.00;85.70;;;;;;5079168;28;19931;-66
2022/06/14 10:12:37;;;;;;;;;;;25.00;86.80;;;;;;5079745;28;19923;-65
2022/06/14 10:15:04;;;;;;;;;;;25.00;82.60;;;;;;5060391;28;19927;-66
2022/06/14 10:17:39;;;;;;;;;;;25.10;81.30;;;;;;5090866;28;20377;-65
2022/06/14 10:20:13;;;;;;;;;;;25.10;83.50;;;;;;5099823;28;19927;-67
2022/06/14 10:22:59;;;;;;;;;;;25.20;78.40;;;;;;5085266;28;19931;-66
2022/06/14 10:25:25;;;;;;;;;;;25.30;77.10;;;;;;5079010;28;20397;-66
2022/06/14 10:28:14;;;;;;;;;;;25.30;75.00;;;;;;5087631;28;19924;-67
2022/06/14 10:30:47;;;;;;;;;;;25.40;74.40;;;;;;5079062;28;20644;-66
2022/06/14 10:33:20;;;;;;;;;;;25.40;76.80;;;;;;5044365;28;19928;-66
2022/06/14 10:35:54;;;;;;;;;;;25.40;72.10;;;;;;5061498;28;20014;-67
2022/06/14 10:38:30;;;;;;;;;;;25.40;70.40;;;;;;5078713;28;19928;-66
2022/06/14 10:41:04;;;;;;;;;;;25.30;73.90;;;;;;5082066;28;20482;-64
2022/06/14 10:43:37;;;;;;;;;;;25.30;71.90;;;;;;5098701;28;19932;-64
2022/06/14 10:46:13;;;;;;;;;;;25.40;77.90;;;;;;5064066;28;19924;-61
2022/06/14 10:48:40;;;;;;;;;;;25.40;69.20;;;;;;5098546;28;19927;-64
2022/06/14 10:51:07;;;;;;;;;;;25.40;72.80;;;;;;5099744;28;19923;-62
2022/06/14 10:53:44;;;;;;;;;;;25.40;71.10;;;;;;5098563;28;19956;-61
2022/06/14 10:56:20;;;;;;;;;;;25.40;68.50;;;;;;5099329;28;19924;-61
2022/06/14 10:58:49;;;;;;;;;;;25.50;70.00;;;;;;5089775;28;20329;-60
2022/06/14 11:01:27;;;;;;;;;;;25.50;67.20;;;;;;5069327;28;19924;-67
2022/06/14 11:03:55;;;;;;;;;;;25.50;72.10;;;;;;5039911;28;19928;-65
2022/06/14 11:06:45;;;;;;;;;;;25.60;70.50;;;;;;5040115;28;19924;-61
2022/06/14 11:09:21;;;;;;;;;;;25.60;69.30;;;;;;5040071;28;19974;-61
2022/06/14 11:11:54;;;;;;;;;;;25.60;68.60;;;;;;5058100;28;19947;-61
2022/06/14 11:14:33;;;;;;;;;;;25.70;69.40;;;;;;5023659;28;19920;-61
2022/06/14 11:17:09;;;;;;;;;;;25.80;72.00;;;;;;5071189;28;20533;-63
2022/06/14 11:19:46;;;;;;;;;;;25.90;71.50;;;;;;5098658;28;19950;-65
2022/06/14 11:22:16;;;;;;;;;;;25.90;73.90;;;;;;5079915;28;19930;-65
2022/06/14 11:24:44;;;;;;;;;;;26.10;72.20;;;;;;5056600;28;19968;-63
2022/06/14 11:27:29;;;;;;;;;;;26.10;64.90;;;;;;5051692;28;20694;-63
2022/06/14 11:30:09;;;;;;;;;;;26.10;67.10;;;;;;5060182;28;19977;-65
2022/06/14 11:32:39;;;;;;;;;;;26.10;69.60;;;;;;5077314;28;19955;-64
2022/06/14 11:35:24;;;;;;;;;;;26.00;65.40;;;;;;5078258;28;19927;-64
2022/06/14 11:37:57;;;;;;;;;;;26.00;66.40;;;;;;5059890;28;19927;-64
2022/06/14 11:40:31;;;;;;;;;;;26.00;61.80;;;;;;5055765;28;19924;-64
2022/06/14 11:43:17;;;;;;;;;;;26.00;62.40;;;;;;5097340;28;20026;-63
2022/06/14 11:45:49;;;;;;;;;;;26.00;62.90;;;;;;5098113;28;19923;-64
2022/06/14 11:48:36;;;;;;;;;;;26.00;63.70;;;;;;5098437;28;19927;-64
2022/06/14 11:51:12;;;;;;;;;;;26.10;63.20;;;;;;5078621;28;20014;-64
2022/06/14 11:53:57;;;;;;;;;;;26.10;62.20;;;;;;5080320;28;19951;-65
2022/06/14 11:56:43;;;;;;;;;;;26.20;59.80;;;;;;5097070;28;19923;-64
2022/06/14 11:59:14;;;;;;;;;;;26.20;62.50;;;;;;5095047;28;20670;-65
2022/06/14 12:01:53;;;;;;;;;;;26.20;60.80;;;;;;5064191;28;19947;-61
2022/06/14 12:04:38;;;;;;;;;;;26.30;60.60;;;;;;5042343;28;19924;-60
2022/06/14 12:07:21;;;;;;;;;;;26.40;61.10;;;;;;5058880;28;19927;-61
2022/06/14 12:10:07;;;;;;;;;;;26.50;60.60;;;;;;5077076;28;19924;-61
2022/06/14 12:12:37;;;;;;;;;;;26.60;60.80;;;;;;5076486;28;19997;-61
2022/06/14 12:15:13;;;;;;;;;;;26.60;62.80;;;;;;5077526;28;20377;-61
2022/06/14 12:17:43;;;;;;;;;;;26.70;62.60;;;;;;5089319;28;19924;-62
2022/06/14 12:20:18;;;;;;;;;;;26.70;59.60;;;;;;5062274;28;19928;-62
2022/06/14 12:22:50;;;;;;;;;;;26.80;58.80;;;;;;5077310;28;19935;-61
2022/06/14 12:28:26;;;;;;;;;;;27.10;60.60;;;;;;5084495;28;19924;-64
2022/06/14 12:30:56;;;;;;;;;;;27.20;58.00;;;;;;5058876;28;19930;-64
2022/06/14 12:33:35;;;;;;;;;;;27.30;55.30;;;;;;5076645;28;19924;-65
2022/06/14 12:36:02;;;;;;;;;;;27.30;55.20;;;;;;5076502;28;19924;-64
2022/06/14 12:38:31;;;;;;;;;;;27.40;56.20;;;;;;5075621;28;19924;-64
2022/06/14 12:41:13;;;;;;;;;;;27.60;57.90;;;;;;5055279;28;20402;-64
2022/06/14 12:43:45;;;;;;;;;;;27.70;57.00;;;;;;5095707;28;19927;-64
2022/06/14 12:46:15;;;;;;;;;;;27.70;57.10;;;;;;5094588;28;19923;-64
2022/06/14 12:49:00;;;;;;;;;;;27.70;57.20;;;;;;5096587;28;19926;-65
2022/06/14 12:51:30;;;;;;;;;;;27.70;55.30;;;;;;5095835;28;19930;-64
2022/06/14 12:54:02;;;;;;;;;;;27.70;54.80;;;;;;5096806;28;19924;-64
2022/06/14 12:56:36;;;;;;;;;;;27.90;54.60;;;;;;5095863;28;19924;-64
2022/06/14 12:59:03;;;;;;;;;;;28.00;55.90;;;;;;5096185;28;19927;-64
2022/06/14 13:01:51;;;;;;;;;;;28.20;52.60;;;;;;5069900;28;19928;-64
2022/06/14 13:04:20;;;;;;;;;;;28.20;52.50;;;;;;5056176;28;19921;-64
2022/06/14 13:06:59;;;;;;;;;;;28.20;53.10;;;;;;5055542;28;20153;-65
2022/06/14 13:09:27;;;;;;;;;;;28.20;53.00;;;;;;5054646;28;19924;-64
2022/06/14 13:12:02;;;;;;;;;;;28.40;53.70;;;;;;5037813;28;20378;-64
2022/06/14 13:14:35;;;;;;;;;;;28.40;51.80;;;;;;5055761;28;20360;-65
2022/06/14 13:17:16;;;;;;;;;;;28.30;50.90;;;;;;5069670;28;20022;-64
2022/06/14 13:19:53;;;;;;;;;;;28.40;51.40;;;;;;5095317;28;19923;-64
2022/06/14 13:22:38;;;;;;;;;;;28.50;50.30;;;;;;5096386;28;20683;-64
2022/06/14 13:25:04;;;;;;;;;;;28.60;52.30;;;;;;5077030;28;20316;-65
2022/06/14 13:27:37;;;;;;;;;;;28.60;53.00;;;;;;5078841;28;19931;-64
2022/06/14 13:30:09;;;;;;;;;;;28.70;51.50;;;;;;5036200;28;19920;-64
2022/06/14 13:32:46;;;;;;;;;;;28.70;49.90;;;;;;5055672;28;19986;-63
2022/06/14 13:35:32;;;;;;;;;;;28.60;50.60;;;;;;5036865;28;19927;-64
2022/06/14 13:38:05;;;;;;;;;;;28.60;53.60;;;;;;5057055;28;19959;-65
2022/06/14 13:40:32;;;;;;;;;;;28.50;51.90;;;;;;5095545;28;20034;-65
2022/06/14 13:43:08;;;;;;;;;;;28.60;51.80;;;;;;5078489;28;19954;-64
2022/06/14 13:45:53;;;;;;;;;;;28.80;52.20;;;;;;5093831;28;19924;-65
2022/06/14 13:48:27;;;;;;;;;;;28.90;50.30;;;;;;5095494;28;20007;-66
2022/06/14 13:51:03;;;;;;;;;;;28.90;49.90;;;;;;5058181;28;19963;-65
2022/06/14 13:54:00;;;;;;;;;;;28.90;50.50;;;;;;5075316;28;20414;-65
2022/06/14 13:56:50;;;;;;;;;;;28.90;52.20;;;;;;5066447;28;19926;-65
2022/06/14 13:59:19;;;;;;;;;;;28.90;50.60;;;;;;5039867;28;19924;-65
2022/06/14 14:01:58;;;;;;;;;;;28.90;49.40;;;;;;5064073;28;19927;-65
2022/06/14 14:04:44;;;;;;;;;;;28.90;49.20;;;;;;5056074;28;19927;-65
2022/06/14 14:07:17;;;;;;;;;;;28.90;50.00;;;;;;5054778;28;19946;-62
2022/06/14 14:09:44;;;;;;;;;;;28.90;50.00;;;;;;5054592;28;20423;-63
2022/06/14 14:12:20;;;;;;;;;;;28.80;50.00;;;;;;5055590;28;19930;-65
2022/06/14 14:14:53;;;;;;;;;;;28.80;50.30;;;;;;5054886;28;19970;-64
2022/06/14 14:17:27;;;;;;;;;;;28.70;48.40;;;;;;5074756;28;19924;-64
2022/06/14 14:20:09;;;;;;;;;;;28.60;49.00;;;;;;5093694;28;19997;-65
2022/06/14 14:22:48;;;;;;;;;;;28.40;49.00;;;;;;5077532;28;19924;-63
2022/06/14 14:25:15;;;;;;;;;;;28.30;48.40;;;;;;5094205;28;19924;-65
2022/06/14 14:28:01;;;;;;;;;;;28.20;50.30;;;;;;5063167;28;20030;-64
2022/06/14 14:30:54;;;;;;;;;;;28.10;49.10;;;;;;5074872;28;20397;-64
2022/06/14 14:33:21;;;;;;;;;;;28.10;46.60;;;;;;5075540;28;19963;-64
2022/06/14 14:35:50;;;;;;;;;;;28.10;49.20;;;;;;5074477;28;19924;-64
2022/06/14 14:38:20;;;;;;;;;;;28.10;49.10;;;;;;5056501;28;19931;-64
2022/06/14 14:43:40;;;;;;;;;;;27.90;48.60;;;;;;5098673;28;20012;-64
2022/06/14 14:46:17;;;;;;;;;;;27.80;49.50;;;;;;5098025;28;20448;-64
2022/06/14 14:48:49;;;;;;;;;;;27.80;48.00;;;;;;5098180;28;19923;-62
2022/06/14 14:51:19;;;;;;;;;;;27.80;48.80;;;;;;5080564;28;19992;-61
2022/06/14 14:54:02;;;;;;;;;;;28.00;50.10;;;;;;5080325;28;19924;-60
2022/06/14 14:56:33;;;;;;;;;;;28.00;47.30;;;;;;5070827;28;19963;-61
2022/06/14 14:59:09;;;;;;;;;;;27.90;47.40;;;;;;5059621;28;19919;-61
2022/06/14 15:07:37;;;;;;;;;;;27.70;47.00;;;;;;5076342;28;19942;-61
2022/06/14 15:10:04;;;;;;;;;;;27.70;47.30;;;;;;5059614;28;20409;-61
2022/06/14 15:12:35;;;;;;;;;;;27.50;48.00;;;;;;5078826;28;19924;-62
2022/06/14 15:15:04;;;;;;;;;;;27.50;47.50;;;;;;5077729;28;20690;-62
2022/06/14 15:19:54;;;;;;;;;;;27.60;47.20;;;;;;5089628;28;20015;-62